sensor_id;sensor_type;location;lat;lon;timestamp;P1;P2;P0
47741;PMS5003;33504;52.066;6.096;2024-03-23T00:53:55;24;21;
47741;PMS5003;33504;52.066;6.096;2024-03-23T00:56:22;26;25;
47741;PMS5003;33504;52.066;6.096;2024-03-23T00:58:50;29;23;
47741;PMS5003;33504;52.066;6.096;2024-03-23T01:01:16;26;24;
47741;PMS5003;33504;52.066;6.096;2024-03-23T01:03:43;26;23;
47741;PMS5003;33504;52.066;6.096;2024-03-23T01:06:10;29;26;
47741;PMS5003;33504;52.066;6.096;2024-03-23T01:08:37;28;22;
47741;PMS5003;33504;52.066;6.096;2024-03-23T01:11:05;20;17;
47741;PMS5003;33504;52.066;6.096;2024-03-23T01:13:33;26;24;
47741;PMS5003;33504;52.066;6.096;2024-03-23T01:15:59;27;24;
47741;PMS5003;33504;52.066;6.096;2024-03-23T01:18:26;34;28;
47741;PMS5003;33504;52.066;6.096;2024-03-23T01:20:53;34;30;
47741;PMS5003;33504;52.066;6.096;2024-03-23T01:23:21;27;25;
47741;PMS5003;33504;52.066;6.096;2024-03-23T01:25:52;27;26;
47741;PMS5003;33504;52.066;6.096;2024-03-23T01:28:19;30;29;
47741;PMS5003;33504;52.066;6.096;2024-03-23T01:30:48;29;27;
47741;PMS5003;33504;52.066;6.096;2024-03-23T01:33:15;26;24;
47741;PMS5003;33504;52.066;6.096;2024-03-23T01:35:43;29;23;
47741;PMS5003;33504;52.066;6.096;2024-03-23T01:38:10;25;24;
47741;PMS5003;33504;52.066;6.096;2024-03-23T01:40:37;30;28;
47741;PMS5003;33504;52.066;6.096;2024-03-23T01:43:05;31;28;
47741;PMS5003;33504;52.066;6.096;2024-03-23T01:45:34;29;26;
47741;PMS5003;33504;52.066;6.096;2024-03-23T01:48:01;28;27;
47741;PMS5003;33504;52.066;6.096;2024-03-23T01:50:28;29;27;
47741;PMS5003;33504;52.066;6.096;2024-03-23T01:52:57;27;25;
47741;PMS5003;33504;52.066;6.096;2024-03-23T01:55:25;29;29;
47741;PMS5003;33504;52.066;6.096;2024-03-23T01:57:52;27;26;
47741;PMS5003;33504;52.066;6.096;2024-03-23T02:00:19;32;30;
47741;PMS5003;33504;52.066;6.096;2024-03-23T02:02:47;32;29;
47741;PMS5003;33504;52.066;6.096;2024-03-23T02:05:14;35;32;
47741;PMS5003;33504;52.066;6.096;2024-03-23T02:07:42;28;28;
47741;PMS5003;33504;52.066;6.096;2024-03-23T02:10:10;34;31;
47741;PMS5003;33504;52.066;6.096;2024-03-23T02:12:37;27;26;
47741;PMS5003;33504;52.066;6.096;2024-03-23T02:15:05;31;27;
47741;PMS5003;33504;52.066;6.096;2024-03-23T02:17:32;35;33;
47741;PMS5003;33504;52.066;6.096;2024-03-23T02:20:00;40;29;
47741;PMS5003;33504;52.066;6.096;2024-03-23T02:22:35;39;30;
47741;PMS5003;33504;52.066;6.096;2024-03-23T02:25:03;31;28;
47741;PMS5003;33504;52.066;6.096;2024-03-23T02:27:31;32;31;
47741;PMS5003;33504;52.066;6.096;2024-03-23T02:29:58;39;34;
47741;PMS5003;33504;52.066;6.096;2024-03-23T02:32:25;38;33;
47741;PMS5003;33504;52.066;6.096;2024-03-23T02:34:52;37;34;
47741;PMS5003;33504;52.066;6.096;2024-03-23T02:37:19;38;33;
47741;PMS5003;33504;52.066;6.096;2024-03-23T02:39:46;33;30;
47741;PMS5003;33504;52.066;6.096;2024-03-23T02:42:13;36;32;
47741;PMS5003;33504;52.066;6.096;2024-03-23T02:44:41;43;31;
47741;PMS5003;33504;52.066;6.096;2024-03-23T02:47:08;37;34;
47741;PMS5003;33504;52.066;6.096;2024-03-23T02:49:35;39;38;
47741;PMS5003;33504;52.066;6.096;2024-03-23T02:52:02;37;35;
47741;PMS5003;33504;52.066;6.096;2024-03-23T02:54:30;34;34;
47741;PMS5003;33504;52.066;6.096;2024-03-23T02:56:56;35;32;
47741;PMS5003;33504;52.066;6.096;2024-03-23T02:59:23;47;44;
47741;PMS5003;33504;52.066;6.096;2024-03-23T03:01:50;42;38;
47741;PMS5003;33504;52.066;6.096;2024-03-23T03:04:17;39;35;
47741;PMS5003;33504;52.066;6.096;2024-03-23T03:06:46;42;39;
47741;PMS5003;33504;52.066;6.096;2024-03-23T03:09:14;45;41;
47741;PMS5003;33504;52.066;6.096;2024-03-23T03:11:40;40;37;
47741;PMS5003;33504;52.066;6.096;2024-03-23T03:14:07;46;41;
47741;PMS5003;33504;52.066;6.096;2024-03-23T03:16:34;43;43;
47741;PMS5003;33504;52.066;6.096;2024-03-23T03:19:01;42;40;
47741;PMS5003;33504;52.066;6.096;2024-03-23T03:21:28;51;45;
47741;PMS5003;33504;52.066;6.096;2024-03-23T03:23:56;47;42;
47741;PMS5003;33504;52.066;6.096;2024-03-23T03:26:23;47;46;
47741;PMS5003;33504;52.066;6.096;2024-03-23T03:28:51;44;40;
47741;PMS5003;33504;52.066;6.096;2024-03-23T03:31:18;47;43;
47741;PMS5003;33504;52.066;6.096;2024-03-23T03:33:45;47;44;
47741;PMS5003;33504;52.066;6.096;2024-03-23T03:36:12;52;49;
47741;PMS5003;33504;52.066;6.096;2024-03-23T03:38:39;46;44;
47741;PMS5003;33504;52.066;6.096;2024-03-23T03:41:06;53;45;
47741;PMS5003;33504;52.066;6.096;2024-03-23T03:43:33;49;45;
47741;PMS5003;33504;52.066;6.096;2024-03-23T03:46:00;48;44;
47741;PMS5003;33504;52.066;6.096;2024-03-23T03:48:28;46;43;
47741;PMS5003;33504;52.066;6.096;2024-03-23T03:50:55;51;47;
47741;PMS5003;33504;52.066;6.096;2024-03-23T03:53:23;48;44;
47741;PMS5003;33504;52.066;6.096;2024-03-23T03:55:50;44;42;
47741;PMS5003;33504;52.066;6.096;2024-03-23T03:58:17;57;52;
47741;PMS5003;33504;52.066;6.096;2024-03-23T04:00:45;45;43;
47741;PMS5003;33504;52.066;6.096;2024-03-23T04:03:12;46;43;
47741;PMS5003;33504;52.066;6.096;2024-03-23T04:05:39;46;44;
47741;PMS5003;33504;52.066;6.096;2024-03-23T04:08:07;42;40;
47741;PMS5003;33504;52.066;6.096;2024-03-23T04:10:34;42;39;
47741;PMS5003;33504;52.066;6.096;2024-03-23T04:13:02;46;40;
47741;PMS5003;33504;52.066;6.096;2024-03-23T04:15:30;44;42;
47741;PMS5003;33504;52.066;6.096;2024-03-23T04:17:57;41;38;
47741;PMS5003;33504;52.066;6.096;2024-03-23T04:20:24;48;42;
47741;PMS5003;33504;52.066;6.096;2024-03-23T04:22:51;44;39;
47741;PMS5003;33504;52.066;6.096;2024-03-23T04:25:18;39;37;
47741;PMS5003;33504;52.066;6.096;2024-03-23T04:27:45;42;38;
47741;PMS5003;33504;52.066;6.096;2024-03-23T04:30:13;35;33;
47741;PMS5003;33504;52.066;6.096;2024-03-23T04:32:40;40;36;
47741;PMS5003;33504;52.066;6.096;2024-03-23T04:35:08;36;34;
47741;PMS5003;33504;52.066;6.096;2024-03-23T04:37:35;36;33;
47741;PMS5003;33504;52.066;6.096;2024-03-23T04:40:03;36;33;
47741;PMS5003;33504;52.066;6.096;2024-03-23T04:42:31;38;33;
47741;PMS5003;33504;52.066;6.096;2024-03-23T04:44:58;30;28;
47741;PMS5003;33504;52.066;6.096;2024-03-23T04:47:25;39;36;
47741;PMS5003;33504;52.066;6.096;2024-03-23T04:49:52;39;36;
47741;PMS5003;33504;52.066;6.096;2024-03-23T04:52:19;33;32;
47741;PMS5003;33504;52.066;6.096;2024-03-23T04:54:46;39;35;
47741;PMS5003;33504;52.066;6.096;2024-03-23T04:57:14;36;32;
47741;PMS5003;33504;52.066;6.096;2024-03-23T04:59:41;35;33;
47741;PMS5003;33504;52.066;6.096;2024-03-23T05:02:09;33;30;
47741;PMS5003;33504;52.066;6.096;2024-03-23T05:04:36;36;33;
47741;PMS5003;33504;52.066;6.096;2024-03-23T05:07:03;38;31;
47741;PMS5003;33504;52.066;6.096;2024-03-23T05:09:30;33;32;
47741;PMS5003;33504;52.066;6.096;2024-03-23T05:11:57;36;31;
47741;PMS5003;33504;52.066;6.096;2024-03-23T05:14:25;34;31;
47741;PMS5003;33504;52.066;6.096;2024-03-23T05:16:53;30;30;
47741;PMS5003;33504;52.066;6.096;2024-03-23T05:19:20;32;30;
47741;PMS5003;33504;52.066;6.096;2024-03-23T05:21:47;28;27;
47741;PMS5003;33504;52.066;6.096;2024-03-23T05:24:14;22;22;
47741;PMS5003;33504;52.066;6.096;2024-03-23T05:26:41;26;25;
47741;PMS5003;33504;52.066;6.096;2024-03-23T05:29:08;27;23;
47741;PMS5003;33504;52.066;6.096;2024-03-23T05:31:35;26;24;
47741;PMS5003;33504;52.066;6.096;2024-03-23T05:34:02;25;22;
47741;PMS5003;33504;52.066;6.096;2024-03-23T05:36:30;22;21;
47741;PMS5003;33504;52.066;6.096;2024-03-23T05:38:57;22;21;
47741;PMS5003;33504;52.066;6.096;2024-03-23T05:41:25;19;16;
47741;PMS5003;33504;52.066;6.096;2024-03-23T05:43:51;19;16;
47741;PMS5003;33504;52.066;6.096;2024-03-23T05:46:19;19;17;
47741;PMS5003;33504;52.066;6.096;2024-03-23T05:48:46;18;17;
47741;PMS5003;33504;52.066;6.096;2024-03-23T05:51:14;17;15;
47741;PMS5003;33504;52.066;6.096;2024-03-23T05:53:41;21;17;
47741;PMS5003;33504;52.066;6.096;2024-03-23T05:56:08;17;15;
47741;PMS5003;33504;52.066;6.096;2024-03-23T05:58:35;11;10;
47741;PMS5003;33504;52.066;6.096;2024-03-23T06:01:02;12;11;
47741;PMS5003;33504;52.066;6.096;2024-03-23T06:03:29;12;9;
47741;PMS5003;33504;52.066;6.096;2024-03-23T06:05:57;15;14;
47741;PMS5003;33504;52.066;6.096;2024-03-23T06:08:24;16;13;
47741;PMS5003;33504;52.066;6.096;2024-03-23T06:10:52;11;11;
47741;PMS5003;33504;52.066;6.096;2024-03-23T06:13:20;12;11;
47741;PMS5003;33504;52.066;6.096;2024-03-23T06:15:46;11;10;
47741;PMS5003;33504;52.066;6.096;2024-03-23T06:18:14;12;11;
47741;PMS5003;33504;52.066;6.096;2024-03-23T06:20:41;8;8;
47741;PMS5003;33504;52.066;6.096;2024-03-23T06:23:08;9;8;
47741;PMS5003;33504;52.066;6.096;2024-03-23T06:25:35;10;8;
47741;PMS5003;33504;52.066;6.096;2024-03-23T06:28:01;7;6;
47741;PMS5003;33504;52.066;6.096;2024-03-23T06:30:28;10;8;
47741;PMS5003;33504;52.066;6.096;2024-03-23T06:32:55;11;7;
47741;PMS5003;33504;52.066;6.096;2024-03-23T06:35:22;9;9;
47741;PMS5003;33504;52.066;6.096;2024-03-23T06:37:50;9;8;
47741;PMS5003;33504;52.066;6.096;2024-03-23T06:40:17;10;10;
47741;PMS5003;33504;52.066;6.096;2024-03-23T06:42:44;10;8;
47741;PMS5003;33504;52.066;6.096;2024-03-23T06:45:11;9;8;
47741;PMS5003;33504;52.066;6.096;2024-03-23T06:47:37;10;7;
47741;PMS5003;33504;52.066;6.096;2024-03-23T06:50:05;12;9;
47741;PMS5003;33504;52.066;6.096;2024-03-23T06:52:33;7;6;
47741;PMS5003;33504;52.066;6.096;2024-03-23T06:55:00;7;6;
47741;PMS5003;33504;52.066;6.096;2024-03-23T06:57:27;9;7;
47741;PMS5003;33504;52.066;6.096;2024-03-23T06:59:54;8;5;
47741;PMS5003;33504;52.066;6.096;2024-03-23T07:02:21;10;8;
47741;PMS5003;33504;52.066;6.096;2024-03-23T07:04:48;8;7;
47741;PMS5003;33504;52.066;6.096;2024-03-23T07:07:15;12;11;
47741;PMS5003;33504;52.066;6.096;2024-03-23T07:09:41;7;5;
47741;PMS5003;33504;52.066;6.096;2024-03-23T07:12:08;10;9;
47741;PMS5003;33504;52.066;6.096;2024-03-23T07:14:35;10;7;
47741;PMS5003;33504;52.066;6.096;2024-03-23T07:17:02;7;6;
47741;PMS5003;33504;52.066;6.096;2024-03-23T07:19:29;6;5;
47741;PMS5003;33504;52.066;6.096;2024-03-23T07:21:56;9;7;
47741;PMS5003;33504;52.066;6.096;2024-03-23T07:24:23;10;8;
47741;PMS5003;33504;52.066;6.096;2024-03-23T07:26:51;7;6;
47741;PMS5003;33504;52.066;6.096;2024-03-23T07:29:18;7;6;
47741;PMS5003;33504;52.066;6.096;2024-03-23T07:31:46;11;9;
47741;PMS5003;33504;52.066;6.096;2024-03-23T07:34:12;6;5;
47741;PMS5003;33504;52.066;6.096;2024-03-23T07:36:40;7;5;
47741;PMS5003;33504;52.066;6.096;2024-03-23T07:39:07;6;5;
47741;PMS5003;33504;52.066;6.096;2024-03-23T07:41:34;7;6;
47741;PMS5003;33504;52.066;6.096;2024-03-23T07:44:00;8;8;
47741;PMS5003;33504;52.066;6.096;2024-03-23T07:46:27;5;5;
47741;PMS5003;33504;52.066;6.096;2024-03-23T07:48:54;9;7;
47741;PMS5003;33504;52.066;6.096;2024-03-23T07:51:22;7;5;
47741;PMS5003;33504;52.066;6.096;2024-03-23T07:53:49;5;5;
47741;PMS5003;33504;52.066;6.096;2024-03-23T07:56:16;8;6;
47741;PMS5003;33504;52.066;6.096;2024-03-23T07:58:44;9;7;
47741;PMS5003;33504;52.066;6.096;2024-03-23T08:01:12;22;21;
47741;PMS5003;33504;52.066;6.096;2024-03-23T08:03:41;10;8;
47741;PMS5003;33504;52.066;6.096;2024-03-23T08:06:09;7;7;
47741;PMS5003;33504;52.066;6.096;2024-03-23T08:08:39;7;7;
47741;PMS5003;33504;52.066;6.096;2024-03-23T08:11:07;8;7;
47741;PMS5003;33504;52.066;6.096;2024-03-23T08:13:34;6;5;
47741;PMS5003;33504;52.066;6.096;2024-03-23T08:16:03;10;9;
47741;PMS5003;33504;52.066;6.096;2024-03-23T08:18:30;8;7;
47741;PMS5003;33504;52.066;6.096;2024-03-23T08:20:58;10;8;
47741;PMS5003;33504;52.066;6.096;2024-03-23T08:23:27;10;8;
47741;PMS5003;33504;52.066;6.096;2024-03-23T08:25:57;10;8;
47741;PMS5003;33504;52.066;6.096;2024-03-23T08:28:24;15;14;
47741;PMS5003;33504;52.066;6.096;2024-03-23T08:30:52;13;13;
47741;PMS5003;33504;52.066;6.096;2024-03-23T08:33:20;22;21;
47741;PMS5003;33504;52.066;6.096;2024-03-23T08:35:53;18;15;
47741;PMS5003;33504;52.066;6.096;2024-03-23T08:38:20;12;11;
47741;PMS5003;33504;52.066;6.096;2024-03-23T08:40:47;10;6;
47741;PMS5003;33504;52.066;6.096;2024-03-23T08:43:14;12;11;
47741;PMS5003;33504;52.066;6.096;2024-03-23T08:45:41;8;7;
47741;PMS5003;33504;52.066;6.096;2024-03-23T08:48:09;8;7;
47741;PMS5003;33504;52.066;6.096;2024-03-23T08:50:35;6;6;
47741;PMS5003;33504;52.066;6.096;2024-03-23T08:53:02;5;5;
47741;PMS5003;33504;52.066;6.096;2024-03-23T08:55:30;5;4;
47741;PMS5003;33504;52.066;6.096;2024-03-23T08:57:56;6;6;
47741;PMS5003;33504;52.066;6.096;2024-03-23T09:00:23;6;5;
47741;PMS5003;33504;52.066;6.096;2024-03-23T09:02:50;6;5;
47741;PMS5003;33504;52.066;6.096;2024-03-23T09:05:17;5;5;
47741;PMS5003;33504;52.066;6.096;2024-03-23T09:07:43;5;4;
47741;PMS5003;33504;52.066;6.096;2024-03-23T09:10:11;5;4;
47741;PMS5003;33504;52.066;6.096;2024-03-23T09:12:38;2;2;
47741;PMS5003;33504;52.066;6.096;2024-03-23T09:15:05;5;5;
47741;PMS5003;33504;52.066;6.096;2024-03-23T09:17:32;5;4;
47741;PMS5003;33504;52.066;6.096;2024-03-23T09:19:59;6;4;
47741;PMS5003;33504;52.066;6.096;2024-03-23T09:22:25;4;4;
47741;PMS5003;33504;52.066;6.096;2024-03-23T09:24:52;5;4;
47741;PMS5003;33504;52.066;6.096;2024-03-23T09:27:19;6;5;
47741;PMS5003;33504;52.066;6.096;2024-03-23T09:29:45;4;4;
47741;PMS5003;33504;52.066;6.096;2024-03-23T09:32:12;3;3;
47741;PMS5003;33504;52.066;6.096;2024-03-23T09:34:39;4;4;
47741;PMS5003;33504;52.066;6.096;2024-03-23T09:37:07;6;5;
47741;PMS5003;33504;52.066;6.096;2024-03-23T09:39:34;3;3;
47741;PMS5003;33504;52.066;6.096;2024-03-23T09:42:00;6;4;
47741;PMS5003;33504;52.066;6.096;2024-03-23T09:44:27;2;2;
47741;PMS5003;33504;52.066;6.096;2024-03-23T09:46:55;2;2;
47741;PMS5003;33504;52.066;6.096;2024-03-23T09:49:22;5;5;
47741;PMS5003;33504;52.066;6.096;2024-03-23T09:51:50;5;4;
47741;PMS5003;33504;52.066;6.096;2024-03-23T09:54:17;3;3;
47741;PMS5003;33504;52.066;6.096;2024-03-23T09:56:44;3;3;
47741;PMS5003;33504;52.066;6.096;2024-03-23T09:59:11;4;3;
47741;PMS5003;33504;52.066;6.096;2024-03-23T10:01:39;4;3;
47741;PMS5003;33504;52.066;6.096;2024-03-23T10:04:07;2;2;
47741;PMS5003;33504;52.066;6.096;2024-03-23T10:06:34;5;5;
47741;PMS5003;33504;52.066;6.096;2024-03-23T10:09:01;6;3;
47741;PMS5003;33504;52.066;6.096;2024-03-23T10:11:41;3;2;
47741;PMS5003;33504;52.066;6.096;2024-03-23T10:14:08;5;4;
47741;PMS5003;33504;52.066;6.096;2024-03-23T10:16:35;3;2;
47741;PMS5003;33504;52.066;6.096;2024-03-23T10:19:02;5;3;
47741;PMS5003;33504;52.066;6.096;2024-03-23T10:21:29;4;4;
47741;PMS5003;33504;52.066;6.096;2024-03-23T10:23:55;3;2;
47741;PMS5003;33504;52.066;6.096;2024-03-23T10:26:33;5;5;
47741;PMS5003;33504;52.066;6.096;2024-03-23T10:29:00;3;3;
47741;PMS5003;33504;52.066;6.096;2024-03-23T10:31:28;6;5;
47741;PMS5003;33504;52.066;6.096;2024-03-23T10:33:56;3;3;
47741;PMS5003;33504;52.066;6.096;2024-03-23T10:36:24;3;3;
47741;PMS5003;33504;52.066;6.096;2024-03-23T10:38:51;4;4;
47741;PMS5003;33504;52.066;6.096;2024-03-23T10:41:20;3;3;
47741;PMS5003;33504;52.066;6.096;2024-03-23T10:43:47;4;3;
47741;PMS5003;33504;52.066;6.096;2024-03-23T10:46:15;4;4;
47741;PMS5003;33504;52.066;6.096;2024-03-23T10:48:43;4;3;
47741;PMS5003;33504;52.066;6.096;2024-03-23T10:51:11;3;2;
47741;PMS5003;33504;52.066;6.096;2024-03-23T10:53:40;4;3;
47741;PMS5003;33504;52.066;6.096;2024-03-23T10:56:07;4;3;
47741;PMS5003;33504;52.066;6.096;2024-03-23T10:58:37;2;2;
47741;PMS5003;33504;52.066;6.096;2024-03-23T11:01:07;5;5;
47741;PMS5003;33504;52.066;6.096;2024-03-23T11:03:37;8;5;
47741;PMS5003;33504;52.066;6.096;2024-03-23T11:06:05;15;14;
47741;PMS5003;33504;52.066;6.096;2024-03-23T11:08:34;3;3;
47741;PMS5003;33504;52.066;6.096;2024-03-23T11:11:18;3;1;
47741;PMS5003;33504;52.066;6.096;2024-03-23T11:13:47;3;3;
47741;PMS5003;33504;52.066;6.096;2024-03-23T11:16:16;3;2;
47741;PMS5003;33504;52.066;6.096;2024-03-23T11:18:49;4;3;
47741;PMS5003;33504;52.066;6.096;2024-03-23T11:21:52;5;5;
47741;PMS5003;33504;52.066;6.096;2024-03-23T11:24:20;3;2;
47741;PMS5003;33504;52.066;6.096;2024-03-23T11:26:47;4;3;
47741;PMS5003;33504;52.066;6.096;2024-03-23T11:29:15;5;5;
47741;PMS5003;33504;52.066;6.096;2024-03-23T11:31:46;7;4;
47741;PMS5003;33504;52.066;6.096;2024-03-23T11:34:14;5;3;
47741;PMS5003;33504;52.066;6.096;2024-03-23T11:36:42;3;2;
47741;PMS5003;33504;52.066;6.096;2024-03-23T11:39:13;3;2;
47741;PMS5003;33504;52.066;6.096;2024-03-23T11:41:48;2;1;
47741;PMS5003;33504;52.066;6.096;2024-03-23T11:44:16;1;1;
47741;PMS5003;33504;52.066;6.096;2024-03-23T11:46:44;9;8;
47741;PMS5003;33504;52.066;6.096;2024-03-23T11:49:20;3;2;
47741;PMS5003;33504;52.066;6.096;2024-03-23T11:51:48;2;2;
47741;PMS5003;33504;52.066;6.096;2024-03-23T11:54:16;0;0;
47741;PMS5003;33504;52.066;6.096;2024-03-23T11:56:54;1;1;
47741;PMS5003;33504;52.066;6.096;2024-03-23T11:59:37;4;2;
47741;PMS5003;33504;52.066;6.096;2024-03-23T12:02:06;3;3;
47741;PMS5003;33504;52.066;6.096;2024-03-23T12:04:34;5;4;
47741;PMS5003;33504;52.066;6.096;2024-03-23T12:07:17;9;8;
47741;PMS5003;33504;52.066;6.096;2024-03-23T12:09:45;8;8;
47741;PMS5003;33504;52.066;6.096;2024-03-23T12:12:14;4;3;
47741;PMS5003;33504;52.066;6.096;2024-03-23T12:14:41;3;3;
47741;PMS5003;33504;52.066;6.096;2024-03-23T12:17:10;3;2;
47741;PMS5003;33504;52.066;6.096;2024-03-23T12:19:37;1;1;
47741;PMS5003;33504;52.066;6.096;2024-03-23T12:22:05;2;1;
47741;PMS5003;33504;52.066;6.096;2024-03-23T12:24:32;2;2;
47741;PMS5003;33504;52.066;6.096;2024-03-23T12:27:00;3;2;
47741;PMS5003;33504;52.066;6.096;2024-03-23T12:29:29;3;2;
47741;PMS5003;33504;52.066;6.096;2024-03-23T12:31:56;5;4;
47741;PMS5003;33504;52.066;6.096;2024-03-23T12:34:25;3;2;
47741;PMS5003;33504;52.066;6.096;2024-03-23T12:36:53;2;2;
47741;PMS5003;33504;52.066;6.096;2024-03-23T12:39:20;5;3;
47741;PMS5003;33504;52.066;6.096;2024-03-23T12:41:48;6;5;
47741;PMS5003;33504;52.066;6.096;2024-03-23T12:44:15;2;2;
47741;PMS5003;33504;52.066;6.096;2024-03-23T12:46:42;1;1;
47741;PMS5003;33504;52.066;6.096;2024-03-23T12:49:08;2;2;
47741;PMS5003;33504;52.066;6.096;2024-03-23T12:51:35;2;2;
47741;PMS5003;33504;52.066;6.096;2024-03-23T12:54:03;2;2;
47741;PMS5003;33504;52.066;6.096;2024-03-23T12:56:30;2;2;
47741;PMS5003;33504;52.066;6.096;2024-03-23T12:58:58;4;3;
47741;PMS5003;33504;52.066;6.096;2024-03-23T13:01:26;3;3;
47741;PMS5003;33504;52.066;6.096;2024-03-23T13:03:53;2;1;
47741;PMS5003;33504;52.066;6.096;2024-03-23T13:06:20;1;1;
47741;PMS5003;33504;52.066;6.096;2024-03-23T13:08:46;2;1;
47741;PMS5003;33504;52.066;6.096;2024-03-23T13:11:14;2;2;
47741;PMS5003;33504;52.066;6.096;2024-03-23T13:13:40;1;1;
47741;PMS5003;33504;52.066;6.096;2024-03-23T13:16:09;0;0;
47741;PMS5003;33504;52.066;6.096;2024-03-23T13:18:37;2;2;
47741;PMS5003;33504;52.066;6.096;2024-03-23T13:21:04;4;2;
47741;PMS5003;33504;52.066;6.096;2024-03-23T13:23:31;3;2;
47741;PMS5003;33504;52.066;6.096;2024-03-23T13:25:59;3;2;
47741;PMS5003;33504;52.066;6.096;2024-03-23T13:28:27;1;1;
47741;PMS5003;33504;52.066;6.096;2024-03-23T13:30:54;2;1;
47741;PMS5003;33504;52.066;6.096;2024-03-23T13:33:23;4;3;
47741;PMS5003;33504;52.066;6.096;2024-03-23T13:35:50;3;3;
47741;PMS5003;33504;52.066;6.096;2024-03-23T13:38:18;3;2;
47741;PMS5003;33504;52.066;6.096;2024-03-23T13:40:53;4;4;
47741;PMS5003;33504;52.066;6.096;2024-03-23T13:43:21;4;2;
47741;PMS5003;33504;52.066;6.096;2024-03-23T13:45:51;3;2;
47741;PMS5003;33504;52.066;6.096;2024-03-23T13:48:21;3;2;
47741;PMS5003;33504;52.066;6.096;2024-03-23T13:50:56;1;1;
47741;PMS5003;33504;52.066;6.096;2024-03-23T13:53:23;2;2;
47741;PMS5003;33504;52.066;6.096;2024-03-23T13:55:51;1;1;
47741;PMS5003;33504;52.066;6.096;2024-03-23T13:58:18;2;2;
47741;PMS5003;33504;52.066;6.096;2024-03-23T14:00:46;4;2;
47741;PMS5003;33504;52.066;6.096;2024-03-23T14:03:13;17;17;
47741;PMS5003;33504;52.066;6.096;2024-03-23T14:05:42;18;18;
47741;PMS5003;33504;52.066;6.096;2024-03-23T14:08:10;16;15;
47741;PMS5003;33504;52.066;6.096;2024-03-23T14:10:40;33;33;
47741;PMS5003;33504;52.066;6.096;2024-03-23T14:13:08;2;2;
47741;PMS5003;33504;52.066;6.096;2024-03-23T14:15:35;1;0;
47741;PMS5003;33504;52.066;6.096;2024-03-23T14:18:02;5;3;
47741;PMS5003;33504;52.066;6.096;2024-03-23T14:20:30;2;1;
47741;PMS5003;33504;52.066;6.096;2024-03-23T14:22:57;1;1;
47741;PMS5003;33504;52.066;6.096;2024-03-23T14:25:25;2;1;
47741;PMS5003;33504;52.066;6.096;2024-03-23T14:27:52;1;1;
47741;PMS5003;33504;52.066;6.096;2024-03-23T14:30:20;2;2;
47741;PMS5003;33504;52.066;6.096;2024-03-23T14:32:48;0;0;
47741;PMS5003;33504;52.066;6.096;2024-03-23T14:35:15;2;2;
47741;PMS5003;33504;52.066;6.096;2024-03-23T14:37:43;2;1;
47741;PMS5003;33504;52.066;6.096;2024-03-23T14:40:10;5;5;
47741;PMS5003;33504;52.066;6.096;2024-03-23T14:42:38;3;3;
47741;PMS5003;33504;52.066;6.096;2024-03-23T14:45:06;0;0;
47741;PMS5003;33504;52.066;6.096;2024-03-23T14:47:34;4;4;
47741;PMS5003;33504;52.066;6.096;2024-03-23T14:50:01;6;5;
47741;PMS5003;33504;52.066;6.096;2024-03-23T14:52:29;9;7;
47741;PMS5003;33504;52.066;6.096;2024-03-23T14:54:56;10;10;
47741;PMS5003;33504;52.066;6.096;2024-03-23T14:57:22;9;8;
47741;PMS5003;33504;52.066;6.096;2024-03-23T14:59:49;4;4;
47741;PMS5003;33504;52.066;6.096;2024-03-23T15:02:17;3;3;
47741;PMS5003;33504;52.066;6.096;2024-03-23T15:04:44;2;1;
47741;PMS5003;33504;52.066;6.096;2024-03-23T15:07:12;2;1;
47741;PMS5003;33504;52.066;6.096;2024-03-23T15:09:39;2;2;
47741;PMS5003;33504;52.066;6.096;2024-03-23T15:12:07;3;2;
47741;PMS5003;33504;52.066;6.096;2024-03-23T15:14:34;3;2;
47741;PMS5003;33504;52.066;6.096;2024-03-23T15:17:02;0;0;
47741;PMS5003;33504;52.066;6.096;2024-03-23T15:19:29;2;2;
47741;PMS5003;33504;52.066;6.096;2024-03-23T15:21:57;2;2;
47741;PMS5003;33504;52.066;6.096;2024-03-23T15:24:24;2;2;
47741;PMS5003;33504;52.066;6.096;2024-03-23T15:26:52;4;3;
47741;PMS5003;33504;52.066;6.096;2024-03-23T15:29:20;4;3;
47741;PMS5003;33504;52.066;6.096;2024-03-23T15:31:47;2;2;
47741;PMS5003;33504;52.066;6.096;2024-03-23T15:34:14;1;1;
47741;PMS5003;33504;52.066;6.096;2024-03-23T15:36:42;4;4;
47741;PMS5003;33504;52.066;6.096;2024-03-23T15:39:09;5;5;
47741;PMS5003;33504;52.066;6.096;2024-03-23T15:41:36;3;1;
47741;PMS5003;33504;52.066;6.096;2024-03-23T15:44:04;1;1;
47741;PMS5003;33504;52.066;6.096;2024-03-23T15:46:31;2;2;
47741;PMS5003;33504;52.066;6.096;2024-03-23T15:48:59;1;1;
47741;PMS5003;33504;52.066;6.096;2024-03-23T15:51:26;3;2;
47741;PMS5003;33504;52.066;6.096;2024-03-23T15:53:52;1;1;
47741;PMS5003;33504;52.066;6.096;2024-03-23T15:56:19;1;1;
47741;PMS5003;33504;52.066;6.096;2024-03-23T15:58:46;0;0;
47741;PMS5003;33504;52.066;6.096;2024-03-23T16:01:12;0;0;
47741;PMS5003;33504;52.066;6.096;2024-03-23T16:03:39;0;0;
47741;PMS5003;33504;52.066;6.096;2024-03-23T16:06:07;3;3;
47741;PMS5003;33504;52.066;6.096;2024-03-23T16:08:34;1;1;
47741;PMS5003;33504;52.066;6.096;2024-03-23T16:11:02;1;1;
47741;PMS5003;33504;52.066;6.096;2024-03-23T16:13:30;2;1;
47741;PMS5003;33504;52.066;6.096;2024-03-23T16:15:58;1;1;
47741;PMS5003;33504;52.066;6.096;2024-03-23T16:18:26;2;1;
47741;PMS5003;33504;52.066;6.096;2024-03-23T16:20:54;1;1;
47741;PMS5003;33504;52.066;6.096;2024-03-23T16:23:21;1;1;
47741;PMS5003;33504;52.066;6.096;2024-03-23T16:25:48;1;0;
47741;PMS5003;33504;52.066;6.096;2024-03-23T16:28:17;1;0;
47741;PMS5003;33504;52.066;6.096;2024-03-23T16:30:44;3;2;
47741;PMS5003;33504;52.066;6.096;2024-03-23T16:33:10;2;2;
47741;PMS5003;33504;52.066;6.096;2024-03-23T16:35:37;2;2;
47741;PMS5003;33504;52.066;6.096;2024-03-23T16:38:05;2;2;
47741;PMS5003;33504;52.066;6.096;2024-03-23T16:40:32;1;1;
47741;PMS5003;33504;52.066;6.096;2024-03-23T16:42:59;2;2;
47741;PMS5003;33504;52.066;6.096;2024-03-23T16:45:26;1;1;
47741;PMS5003;33504;52.066;6.096;2024-03-23T16:47:53;3;2;
47741;PMS5003;33504;52.066;6.096;2024-03-23T16:50:19;4;3;
47741;PMS5003;33504;52.066;6.096;2024-03-23T16:52:46;2;2;
47741;PMS5003;33504;52.066;6.096;2024-03-23T16:55:13;4;3;
47741;PMS5003;33504;52.066;6.096;2024-03-23T16:57:41;8;8;
47741;PMS5003;33504;52.066;6.096;2024-03-23T17:00:08;5;5;
47741;PMS5003;33504;52.066;6.096;2024-03-23T17:02:36;11;11;
47741;PMS5003;33504;52.066;6.096;2024-03-23T17:05:03;21;21;
47741;PMS5003;33504;52.066;6.096;2024-03-23T17:07:31;17;17;
47741;PMS5003;33504;52.066;6.096;2024-03-23T17:09:57;21;21;
47741;PMS5003;33504;52.066;6.096;2024-03-23T17:12:25;29;29;
47741;PMS5003;33504;52.066;6.096;2024-03-23T17:14:52;62;62;
47741;PMS5003;33504;52.066;6.096;2024-03-23T17:17:19;27;27;
47741;PMS5003;33504;52.066;6.096;2024-03-23T17:19:46;13;13;
47741;PMS5003;33504;52.066;6.096;2024-03-23T17:22:13;31;31;
47741;PMS5003;33504;52.066;6.096;2024-03-23T17:24:41;14;14;
47741;PMS5003;33504;52.066;6.096;2024-03-23T17:27:08;32;32;
47741;PMS5003;33504;52.066;6.096;2024-03-23T17:29:35;27;27;
47741;PMS5003;33504;52.066;6.096;2024-03-23T17:32:02;20;20;